createdAt,value
2023-05-31T00:01:43.799Z,2.90
2023-05-31T00:04:15.409Z,2.30
2023-05-31T00:06:47.126Z,2.60
2023-05-31T00:09:18.650Z,2.40
2023-05-31T00:11:50.129Z,3.30
2023-05-31T00:14:21.600Z,2.40
2023-05-31T00:17:24.048Z,2.60
2023-05-31T00:19:45.416Z,2.30
2023-05-31T00:22:18.132Z,3.40
2023-05-31T00:27:20.340Z,2.80
2023-05-31T00:29:51.825Z,2.70
2023-05-31T00:32:23.699Z,3.30
2023-05-31T00:34:55.065Z,2.80
2023-05-31T00:37:26.467Z,3.00
2023-05-31T00:39:57.826Z,3.10
2023-05-31T00:42:29.290Z,3.10
2023-05-31T00:45:00.667Z,2.60
2023-05-31T00:47:32.483Z,2.70
2023-05-31T00:50:04.332Z,2.70
2023-05-31T00:52:41.115Z,3.40
2023-05-31T00:55:13.478Z,3.10
2023-05-31T00:57:46.547Z,2.60
2023-05-31T01:00:19.052Z,2.70
2023-05-31T01:02:51.886Z,2.90
2023-05-31T01:05:24.102Z,2.80
2023-05-31T01:07:55.553Z,3.10
2023-05-31T01:10:27.170Z,3.00
2023-05-31T01:13:08.324Z,3.80
2023-05-31T01:15:48.736Z,3.40
2023-05-31T01:18:27.800Z,2.90
2023-05-31T01:21:04.388Z,3.70
2023-05-31T01:24:02.247Z,3.00
2023-05-31T01:26:47.041Z,3.00
2023-05-31T01:29:23.336Z,3.10
2023-05-31T01:31:57.254Z,2.90
2023-05-31T01:34:28.802Z,3.70
2023-05-31T01:37:00.580Z,3.20
2023-05-31T01:39:32.318Z,2.50
2023-05-31T01:42:07.015Z,2.80
2023-05-31T01:44:41.241Z,3.20
2023-05-31T01:47:13.826Z,3.20
2023-05-31T01:49:46.066Z,2.80
2023-05-31T01:52:19.459Z,3.00
2023-05-31T01:54:50.924Z,3.70
2023-05-31T01:57:23.598Z,2.90
2023-05-31T01:59:56.309Z,2.80
2023-05-31T02:05:09.755Z,3.20
2023-05-31T02:07:49.004Z,3.00
2023-05-31T02:10:32.072Z,3.30
2023-05-31T02:13:07.682Z,3.60
2023-05-31T02:15:42.652Z,3.60
2023-05-31T02:18:18.277Z,3.00
2023-05-31T02:20:52.001Z,3.50
2023-05-31T02:23:25.409Z,7.80
2023-05-31T02:25:57.405Z,3.30
2023-05-31T02:28:29.890Z,3.90
2023-05-31T02:31:02.533Z,3.10
2023-05-31T02:33:35.346Z,3.90
2023-05-31T02:36:07.738Z,2.80
2023-05-31T02:38:40.191Z,3.10
2023-05-31T02:41:11.722Z,2.40
2023-05-31T02:43:43.801Z,3.30
2023-05-31T02:46:16.757Z,3.80
2023-05-31T02:48:48.407Z,4.20
2023-05-31T02:51:20.495Z,3.60
2023-05-31T02:54:18.318Z,3.50
2023-05-31T02:56:50.321Z,4.10
2023-05-31T02:59:26.177Z,4.40
2023-05-31T03:02:03.729Z,3.80
2023-05-31T03:04:49.593Z,4.30
2023-05-31T03:07:21.186Z,4.10
2023-05-31T03:09:52.804Z,3.60
2023-05-31T03:12:24.937Z,4.50
2023-05-31T03:14:56.809Z,3.30
2023-05-31T03:17:28.326Z,4.10
2023-05-31T03:19:59.934Z,4.30
2023-05-31T03:22:31.970Z,4.20
2023-05-31T03:25:05.035Z,4.20
2023-05-31T03:27:36.494Z,3.90
2023-05-31T03:30:09.918Z,4.10
2023-05-31T03:32:47.201Z,4.40
2023-05-31T03:35:18.969Z,4.10
2023-05-31T03:37:50.872Z,3.50
2023-05-31T03:40:22.686Z,3.90
2023-05-31T03:42:54.110Z,2.70
2023-05-31T03:45:27.044Z,3.50
2023-05-31T03:47:58.902Z,4.60
2023-05-31T03:50:30.484Z,3.60
2023-05-31T03:53:02.014Z,3.90
2023-05-31T03:55:33.606Z,3.60
2023-05-31T03:58:05.429Z,3.90
2023-05-31T04:00:38.750Z,3.40
2023-05-31T04:03:13.247Z,4.00
2023-05-31T04:05:46.167Z,4.40
2023-05-31T04:10:48.213Z,4.30
2023-05-31T04:13:20.391Z,3.70
2023-05-31T04:15:52.772Z,3.50
2023-05-31T04:18:24.757Z,3.70
2023-05-31T04:20:56.372Z,3.10
2023-05-31T04:23:27.872Z,3.90
2023-05-31T04:26:01.233Z,4.20
2023-05-31T04:28:32.986Z,3.80
2023-05-31T04:31:04.941Z,4.00
2023-05-31T04:33:37.862Z,4.60
2023-05-31T04:36:10.795Z,4.00
2023-05-31T04:38:42.629Z,4.50
2023-05-31T04:41:15.512Z,4.00
2023-05-31T04:43:48.753Z,4.40
2023-05-31T04:46:22.650Z,4.10
2023-05-31T04:48:58.149Z,4.10
2023-05-31T04:51:29.959Z,3.80
2023-05-31T04:54:02.025Z,4.50
2023-05-31T04:56:33.551Z,4.00
2023-05-31T04:59:05.599Z,4.20
2023-05-31T05:01:38.443Z,4.50
2023-05-31T05:04:15.147Z,4.00
2023-05-31T05:06:48.664Z,4.40
2023-05-31T05:11:51.375Z,4.00
2023-05-31T05:14:23.268Z,4.50
2023-05-31T05:16:55.633Z,4.00
2023-05-31T05:19:27.848Z,4.90
2023-05-31T05:21:59.739Z,4.10
2023-05-31T05:24:31.686Z,3.50
2023-05-31T05:29:34.894Z,5.00
2023-05-31T05:32:08.627Z,3.70
2023-05-31T05:34:41.044Z,4.20
2023-05-31T05:37:13.371Z,4.90
2023-05-31T05:39:45.676Z,4.40
2023-05-31T05:42:17.472Z,4.20
2023-05-31T05:44:49.313Z,7.80
2023-05-31T05:47:21.366Z,4.50
2023-05-31T05:49:55.408Z,4.60
2023-05-31T05:52:27.308Z,5.20
2023-05-31T05:54:59.358Z,4.10
2023-05-31T05:57:31.615Z,4.20
2023-05-31T06:00:16.638Z,4.90
2023-05-31T06:02:51.796Z,4.20
2023-05-31T06:05:26.931Z,4.10
2023-05-31T06:08:03.762Z,4.10
2023-05-31T06:10:41.698Z,3.40
2023-05-31T06:13:14.034Z,4.20
2023-05-31T06:15:46.261Z,4.40
2023-05-31T06:18:18.134Z,3.90
2023-05-31T06:20:50.803Z,3.90
2023-05-31T06:23:22.721Z,3.90
2023-05-31T06:25:54.775Z,3.50
2023-05-31T06:28:26.777Z,4.10
2023-05-31T06:31:02.010Z,3.50
2023-05-31T06:33:34.194Z,3.90
2023-05-31T06:36:06.591Z,4.60
2023-05-31T06:38:38.635Z,3.30
2023-05-31T06:41:12.349Z,4.30
2023-05-31T06:46:33.516Z,4.60
2023-05-31T06:49:24.018Z,2.80
2023-05-31T06:52:16.005Z,3.50
2023-05-31T06:55:17.076Z,3.60
2023-05-31T06:57:49.395Z,3.20
2023-05-31T07:00:22.354Z,2.80
2023-05-31T07:02:54.982Z,3.70
2023-05-31T07:05:27.200Z,3.10
2023-05-31T07:07:59.447Z,3.20
2023-05-31T07:10:31.804Z,2.60
2023-05-31T07:13:03.611Z,2.60
2023-05-31T07:15:35.754Z,2.20
2023-05-31T07:18:08.130Z,2.70
2023-05-31T07:20:40.312Z,3.00
2023-05-31T07:23:12.235Z,2.40
2023-05-31T07:25:44.588Z,2.70
2023-05-31T07:28:16.569Z,2.40
2023-05-31T07:30:48.456Z,2.60
2023-05-31T07:33:28.375Z,1.80
2023-05-31T07:36:03.350Z,3.10
2023-05-31T07:38:35.518Z,3.00
2023-05-31T07:41:07.655Z,3.20
2023-05-31T07:43:40.754Z,3.20
2023-05-31T07:46:12.804Z,3.60
2023-05-31T07:48:44.750Z,2.50
2023-05-31T07:51:17.481Z,2.40
2023-05-31T07:53:49.920Z,3.00
2023-05-31T07:56:21.927Z,2.80
2023-05-31T07:58:53.960Z,3.10
2023-05-31T08:01:25.800Z,2.80
2023-05-31T08:04:07.130Z,2.70
2023-05-31T08:06:39.226Z,2.60
2023-05-31T08:09:11.736Z,2.60
2023-05-31T08:11:43.609Z,2.90
2023-05-31T08:14:15.585Z,2.70
2023-05-31T08:16:50.271Z,2.50
2023-05-31T08:19:22.439Z,2.60
2023-05-31T08:21:54.263Z,2.90
2023-05-31T08:24:26.253Z,2.20
2023-05-31T08:26:59.388Z,2.40
2023-05-31T08:29:31.527Z,2.10
2023-05-31T08:32:03.304Z,2.80
2023-05-31T08:34:35.068Z,2.30
2023-05-31T08:37:07.394Z,3.30
2023-05-31T08:39:39.216Z,2.70
2023-05-31T08:42:17.157Z,2.80
2023-05-31T08:44:49.869Z,3.00
2023-05-31T08:49:57.678Z,3.70
2023-05-31T08:52:30.720Z,3.80
2023-05-31T08:55:03.208Z,2.70
2023-05-31T08:57:36.641Z,2.60
2023-05-31T09:00:13.772Z,3.40
2023-05-31T09:02:49.349Z,2.20
2023-05-31T09:05:21.389Z,2.50
2023-05-31T09:07:53.620Z,2.40
2023-05-31T09:10:25.441Z,2.20
2023-05-31T09:12:57.620Z,3.10
2023-05-31T09:15:29.839Z,2.10
2023-05-31T09:18:13.822Z,2.30
2023-05-31T09:20:48.709Z,2.70
2023-05-31T09:23:22.133Z,2.40
2023-05-31T09:25:55.710Z,2.50
2023-05-31T09:28:28.217Z,2.60
2023-05-31T09:31:08.813Z,2.10
2023-05-31T09:33:45.373Z,2.20
2023-05-31T09:36:26.129Z,2.10
2023-05-31T09:39:05.092Z,2.70
2023-05-31T09:41:37.272Z,2.30
2023-05-31T09:44:11.535Z,2.20
2023-05-31T09:46:43.988Z,2.60
2023-05-31T09:49:16.310Z,2.00
2023-05-31T09:51:54.946Z,2.30
2023-05-31T09:54:28.699Z,2.10
2023-05-31T09:57:02.883Z,2.20
2023-05-31T10:02:06.310Z,2.50
2023-05-31T10:07:10.130Z,2.00
2023-05-31T10:09:41.959Z,2.00
2023-05-31T10:12:16.157Z,2.20
2023-05-31T10:14:51.841Z,2.30
2023-05-31T10:17:29.776Z,2.20
2023-05-31T10:20:06.097Z,2.70
2023-05-31T10:22:41.923Z,2.30
2023-05-31T10:25:20.146Z,2.80
2023-05-31T10:27:56.421Z,2.20
2023-05-31T10:30:32.308Z,2.10
2023-05-31T10:33:12.902Z,2.70
2023-05-31T10:35:48.265Z,2.10
2023-05-31T10:38:28.574Z,2.40
2023-05-31T10:41:05.768Z,2.20
2023-05-31T10:43:44.765Z,2.20
2023-05-31T10:46:21.786Z,1.70
2023-05-31T10:48:57.046Z,2.40
2023-05-31T10:51:43.193Z,2.40
2023-05-31T10:54:22.164Z,2.20
2023-05-31T10:56:58.509Z,2.00
2023-05-31T10:59:30.725Z,2.50
2023-05-31T11:04:33.868Z,2.40
2023-05-31T11:07:17.676Z,3.10
2023-05-31T11:10:01.147Z,2.50
2023-05-31T11:12:37.569Z,2.30
2023-05-31T11:15:16.354Z,2.50
2023-05-31T11:17:56.732Z,2.70
2023-05-31T11:20:30.157Z,2.00
2023-05-31T11:23:31.683Z,2.40
2023-05-31T11:26:19.512Z,2.40
2023-05-31T11:29:10.832Z,2.00
2023-05-31T11:32:02.803Z,2.20
2023-05-31T11:34:50.171Z,1.50
2023-05-31T11:37:24.398Z,2.10
2023-05-31T11:39:57.802Z,2.20
2023-05-31T11:42:33.983Z,1.90
2023-05-31T11:45:08.671Z,2.30
2023-05-31T11:48:01.226Z,2.10
2023-05-31T11:50:34.762Z,2.00
2023-05-31T11:53:08.246Z,1.80
2023-05-31T11:55:40.036Z,2.20
2023-05-31T11:58:12.175Z,2.10
2023-05-31T12:00:48.764Z,2.20
2023-05-31T12:03:22.840Z,3.10
2023-05-31T12:05:58.440Z,2.10
2023-05-31T12:08:30.623Z,1.80
2023-05-31T12:11:07.190Z,2.10
2023-05-31T12:13:39.063Z,2.40
2023-05-31T12:16:10.975Z,2.20
2023-05-31T12:18:42.854Z,2.30
2023-05-31T12:21:16.755Z,1.70
2023-05-31T12:23:59.611Z,2.20
2023-05-31T12:26:37.625Z,2.20
2023-05-31T12:29:10.011Z,2.00
2023-05-31T12:31:42.552Z,2.10
2023-05-31T12:36:48.589Z,1.90
2023-05-31T12:39:25.619Z,2.00
2023-05-31T12:41:59.555Z,2.30
2023-05-31T12:44:32.890Z,2.90
2023-05-31T12:47:08.971Z,1.80
2023-05-31T12:49:42.954Z,1.90
2023-05-31T12:52:18.868Z,2.70
2023-05-31T12:54:50.918Z,2.00
2023-05-31T12:57:23.230Z,2.20
2023-05-31T13:00:03.298Z,2.10
2023-05-31T13:02:35.412Z,2.30
2023-05-31T13:05:08.520Z,2.00
2023-05-31T13:07:41.568Z,1.90
2023-05-31T13:10:15.489Z,2.00
2023-05-31T13:12:47.826Z,2.50
2023-05-31T13:15:20.311Z,2.10
2023-05-31T13:17:53.307Z,2.00
2023-05-31T13:20:25.694Z,1.80
2023-05-31T13:25:35.619Z,2.80
2023-05-31T13:28:07.595Z,1.80
2023-05-31T13:30:40.407Z,2.00
2023-05-31T13:33:12.264Z,2.00
2023-05-31T13:35:44.515Z,1.80
2023-05-31T13:38:16.654Z,2.20
2023-05-31T13:40:48.624Z,3.10
2023-05-31T13:43:20.744Z,2.20
2023-05-31T13:45:52.664Z,2.00
2023-05-31T13:48:24.508Z,1.90
2023-05-31T13:50:56.295Z,1.70
2023-05-31T13:53:28.971Z,2.10
2023-05-31T13:56:03.729Z,3.60
2023-05-31T13:58:37.526Z,1.80
2023-05-31T14:01:10.151Z,2.90
2023-05-31T14:03:42.428Z,1.90
2023-05-31T14:06:14.957Z,2.00
2023-05-31T14:11:18.896Z,2.50
2023-05-31T14:13:52.230Z,2.00
2023-05-31T14:16:24.678Z,2.30
2023-05-31T14:18:56.750Z,2.40
2023-05-31T14:21:29.254Z,2.30
2023-05-31T14:24:01.242Z,2.80
2023-05-31T14:26:33.352Z,2.40
2023-05-31T14:31:38.145Z,2.60
2023-05-31T14:34:10.075Z,3.10
2023-05-31T14:36:43.360Z,2.70
2023-05-31T14:39:15.913Z,3.10
2023-05-31T14:41:47.706Z,2.20
2023-05-31T14:44:19.863Z,2.20
2023-05-31T14:46:53.455Z,2.20
2023-05-31T14:49:26.203Z,2.20
2023-05-31T14:51:58.542Z,2.10
2023-05-31T14:54:30.532Z,2.20
2023-05-31T14:57:03.609Z,2.50
2023-05-31T14:59:35.637Z,1.90
2023-05-31T15:02:08.398Z,2.90
2023-05-31T15:04:41.380Z,2.10
2023-05-31T15:07:14.566Z,1.90
2023-05-31T15:09:46.378Z,1.40
2023-05-31T15:12:18.340Z,2.30
2023-05-31T15:14:50.450Z,2.20
2023-05-31T15:19:53.310Z,2.20
2023-05-31T15:22:25.469Z,2.50
2023-05-31T15:27:27.631Z,1.80
2023-05-31T15:29:59.393Z,1.90
2023-05-31T15:32:31.213Z,1.80
2023-05-31T15:35:03.096Z,2.00
2023-05-31T15:37:36.331Z,2.10
2023-05-31T15:40:10.428Z,2.10
2023-05-31T15:42:42.335Z,2.30
2023-05-31T15:45:14.555Z,2.50
2023-05-31T15:50:17.617Z,2.10
2023-05-31T15:52:49.711Z,1.90
2023-05-31T15:55:22.371Z,2.20
2023-05-31T15:57:54.367Z,2.20
2023-05-31T16:00:26.588Z,2.30
2023-05-31T16:02:58.487Z,2.20
2023-05-31T16:05:30.669Z,2.40
2023-05-31T16:08:03.448Z,2.30
2023-05-31T16:10:35.339Z,2.10
2023-05-31T16:13:09.447Z,2.40
2023-05-31T16:15:41.593Z,2.10
2023-05-31T16:20:44.055Z,2.80
2023-05-31T16:23:16.056Z,3.30
2023-05-31T16:25:48.372Z,3.50
2023-05-31T16:28:20.215Z,4.80
2023-05-31T16:30:52.277Z,4.90
2023-05-31T16:35:54.812Z,4.90
2023-05-31T16:40:09.880Z,5.10
2023-05-31T16:42:41.889Z,7.60
2023-05-31T16:47:44.390Z,3.10
2023-05-31T16:52:52.438Z,3.00
2023-05-31T16:55:24.778Z,3.60
2023-05-31T16:57:57.508Z,3.10
2023-05-31T17:00:29.731Z,3.80
2023-05-31T17:03:02.108Z,3.10
2023-05-31T17:05:34.502Z,3.20
2023-05-31T17:10:36.880Z,3.60
2023-05-31T17:13:10.448Z,2.60
2023-05-31T17:15:43.252Z,2.60
2023-05-31T17:20:46.553Z,3.10
2023-05-31T17:25:49.095Z,3.10
2023-05-31T17:28:21.109Z,2.80
2023-05-31T17:30:53.714Z,3.70
2023-05-31T17:33:25.649Z,2.80
2023-05-31T17:35:57.817Z,3.30
2023-05-31T17:38:29.704Z,5.00
2023-05-31T17:41:01.764Z,2.90
2023-05-31T17:43:34.338Z,3.30
2023-05-31T17:46:06.238Z,2.70
2023-05-31T17:48:43.194Z,3.30
2023-05-31T17:51:15.268Z,2.70
2023-05-31T17:53:48.028Z,3.20
2023-05-31T17:56:20.494Z,3.20
2023-05-31T17:58:52.405Z,3.00
2023-05-31T18:01:25.303Z,3.50
2023-05-31T18:03:57.620Z,3.10
2023-05-31T18:06:30.015Z,4.70
2023-05-31T18:09:01.839Z,3.60
2023-05-31T18:11:34.164Z,3.50
2023-05-31T18:14:06.898Z,2.70
2023-05-31T18:16:39.730Z,3.20
2023-05-31T18:19:11.527Z,3.10
2023-05-31T18:21:45.362Z,3.30
2023-05-31T18:24:17.626Z,3.10
2023-05-31T18:26:51.887Z,3.00
2023-05-31T18:29:24.143Z,3.10
2023-05-31T18:31:56.366Z,2.90
2023-05-31T18:34:28.791Z,3.10
2023-05-31T18:37:01.243Z,3.30
2023-05-31T18:39:33.366Z,2.80
2023-05-31T18:42:07.820Z,2.80
2023-05-31T18:44:40.022Z,3.00
2023-05-31T18:47:11.999Z,2.90
2023-05-31T18:49:43.809Z,3.00
2023-05-31T18:52:18.163Z,2.60
2023-05-31T18:54:50.005Z,2.70
2023-05-31T18:57:22.164Z,5.50
2023-05-31T18:59:54.276Z,4.20
2023-05-31T19:02:26.615Z,3.30
2023-05-31T19:04:58.865Z,3.60
2023-05-31T19:07:30.931Z,3.10
2023-05-31T19:10:05.734Z,3.00
2023-05-31T19:12:37.588Z,2.80
2023-05-31T19:15:12.923Z,2.80
2023-05-31T19:17:47.061Z,2.80
2023-05-31T19:20:19.212Z,3.00
2023-05-31T19:22:56.234Z,3.40
2023-05-31T19:25:28.407Z,3.00
2023-05-31T19:28:03.773Z,3.30
2023-05-31T19:30:35.582Z,3.00
2023-05-31T19:33:08.959Z,3.20
2023-05-31T19:35:41.202Z,3.40
2023-05-31T19:38:13.343Z,3.70
2023-05-31T19:40:45.194Z,2.90
2023-05-31T19:43:17.414Z,3.90
2023-05-31T19:45:51.137Z,3.50
2023-05-31T19:48:23.119Z,3.50
2023-05-31T19:50:54.948Z,4.60
2023-05-31T19:53:28.482Z,3.90
2023-05-31T19:56:00.954Z,3.40
2023-05-31T19:58:33.599Z,4.60
2023-05-31T20:01:06.991Z,4.50
2023-05-31T20:03:39.936Z,4.00
2023-05-31T20:06:12.354Z,4.20
2023-05-31T20:08:47.415Z,4.60
2023-05-31T20:11:20.620Z,4.20
2023-05-31T20:13:54.232Z,5.80
2023-05-31T20:16:28.266Z,4.20
2023-05-31T20:19:00.195Z,4.70
2023-05-31T20:21:33.125Z,5.80
2023-05-31T20:24:05.436Z,5.10
2023-05-31T20:26:37.384Z,5.00
2023-05-31T20:29:09.327Z,5.60
2023-05-31T20:31:41.340Z,4.20
2023-05-31T20:34:14.918Z,4.60
2023-05-31T20:36:49.003Z,4.30
2023-05-31T20:39:21.399Z,4.40
2023-05-31T20:41:53.434Z,4.80
2023-05-31T20:44:26.310Z,4.50
2023-05-31T20:46:58.577Z,4.70
2023-05-31T20:49:30.368Z,5.40
2023-05-31T20:52:05.410Z,4.50
2023-05-31T20:54:37.459Z,4.90
2023-05-31T20:57:11.283Z,4.50
2023-05-31T20:59:43.432Z,4.70
2023-05-31T21:02:15.294Z,5.80
2023-05-31T21:04:48.760Z,5.50
2023-05-31T21:07:20.850Z,5.30
2023-05-31T21:09:54.016Z,4.60
2023-05-31T21:12:26.322Z,5.00
2023-05-31T21:14:58.184Z,5.00
2023-05-31T21:17:31.564Z,6.30
2023-05-31T21:20:04.682Z,5.40
2023-05-31T21:22:36.979Z,5.60
2023-05-31T21:25:11.156Z,5.00
2023-05-31T21:27:44.062Z,4.90
2023-05-31T21:30:16.843Z,5.40
2023-05-31T21:35:19.635Z,5.20
2023-05-31T21:37:51.534Z,4.70
2023-05-31T21:40:24.493Z,5.10
2023-05-31T21:42:56.326Z,5.80
2023-05-31T21:45:28.045Z,5.10
2023-05-31T21:48:00.223Z,5.40
2023-05-31T21:50:32.115Z,5.90
2023-05-31T21:53:03.993Z,5.30
2023-05-31T21:55:35.844Z,5.30
2023-05-31T21:58:07.639Z,5.20
2023-05-31T22:00:39.512Z,4.80
2023-05-31T22:03:11.254Z,4.90
2023-05-31T22:05:44.222Z,5.20
2023-05-31T22:08:15.926Z,4.00
2023-05-31T22:10:47.822Z,4.40
2023-05-31T22:13:19.562Z,4.80
2023-05-31T22:15:52.513Z,4.80
2023-05-31T22:18:24.249Z,5.10
2023-05-31T22:20:56.495Z,4.40
2023-05-31T22:23:29.217Z,4.60
2023-05-31T22:28:31.476Z,4.40
2023-05-31T22:31:03.823Z,5.10
2023-05-31T22:33:35.991Z,7.60
2023-05-31T22:36:09.214Z,6.60
2023-05-31T22:38:40.959Z,5.30
2023-05-31T22:41:12.823Z,4.40
2023-05-31T22:43:44.662Z,4.70
2023-05-31T22:46:16.694Z,5.40
2023-05-31T22:48:48.606Z,4.80
2023-05-31T22:51:20.543Z,4.90
2023-05-31T22:53:52.269Z,4.90
2023-05-31T22:56:24.029Z,6.40
2023-05-31T22:58:55.953Z,5.80
2023-05-31T23:01:27.657Z,6.50
2023-05-31T23:04:01.454Z,5.70
2023-05-31T23:06:34.267Z,5.80
2023-05-31T23:09:06.643Z,5.10
2023-05-31T23:11:38.393Z,6.10
2023-05-31T23:14:10.249Z,5.40
2023-05-31T23:16:42.424Z,5.70
2023-05-31T23:19:15.054Z,5.30
2023-05-31T23:21:46.840Z,5.90
2023-05-31T23:24:18.609Z,3.90
2023-05-31T23:26:50.285Z,5.30
2023-05-31T23:29:22.122Z,5.60
2023-05-31T23:31:53.941Z,5.60
2023-05-31T23:34:25.836Z,4.70
2023-05-31T23:36:57.608Z,5.30
2023-05-31T23:39:29.305Z,5.80
2023-05-31T23:42:01.556Z,5.00
2023-05-31T23:44:33.372Z,6.20
2023-05-31T23:47:05.362Z,5.20
2023-05-31T23:49:37.150Z,5.20
2023-05-31T23:52:09.391Z,5.60
2023-05-31T23:54:41.858Z,6.60
2023-05-31T23:57:13.955Z,6.00
2023-05-31T23:59:45.694Z,5.90
